Terminal Aerodrome Forecast
Issued by NWS San Angelo, TX

Home | Current Version | Previous Version | Text Only | Print | Product List | Glossary On
Versions: 1 2 3 4 5 6 7 8 9 10 11 12
000
FTUS44 KSJT 252320
TAFSJT
TAF
KSJT 252320Z 2600/2624 22011KT P6SM SCT250
     FM260700 27014KT P6SM FEW250
     FM261500 32015G25KT P6SM SCT250=

USA.gov is the U.S. government's official web portal to all federal, state and local government web resources and services.